createdAt,value
2023-05-25T00:01:24.524Z,100.00
2023-05-25T00:04:11.487Z,100.00
2023-05-25T00:06:57.940Z,100.00
2023-05-25T00:09:45.973Z,100.00
2023-05-25T00:12:32.887Z,100.00
2023-05-25T00:15:19.454Z,100.00
2023-05-25T00:18:05.965Z,100.00
2023-05-25T00:20:55.486Z,100.00
2023-05-25T00:23:42.683Z,100.00
2023-05-25T00:26:28.916Z,100.00
2023-05-25T00:29:15.487Z,100.00
2023-05-25T00:32:02.787Z,100.00
2023-05-25T00:34:49.425Z,100.00
2023-05-25T00:37:36.976Z,100.00
2023-05-25T00:40:23.452Z,100.00
2023-05-25T00:43:12.200Z,100.00
2023-05-25T00:45:58.905Z,100.00
2023-05-25T00:48:45.791Z,100.00
2023-05-25T00:51:33.204Z,100.00
2023-05-25T00:54:19.549Z,100.00
2023-05-25T00:57:07.877Z,100.00
2023-05-25T00:59:58.075Z,100.00
2023-05-25T01:02:48.374Z,100.00
2023-05-25T01:05:36.033Z,100.00
2023-05-25T01:08:24.295Z,100.00
2023-05-25T01:11:14.590Z,100.00
2023-05-25T01:14:02.392Z,100.00
2023-05-25T01:16:50.037Z,100.00
2023-05-25T01:19:40.961Z,100.00
2023-05-25T01:22:38.391Z,100.00
2023-05-25T01:25:36.607Z,100.00
2023-05-25T01:28:30.799Z,100.00
2023-05-25T01:31:20.832Z,100.00
2023-05-25T01:34:07.686Z,100.00
2023-05-25T01:36:54.460Z,100.00
2023-05-25T01:39:41.510Z,100.00
2023-05-25T01:42:27.732Z,100.00
2023-05-25T01:45:14.852Z,100.00
2023-05-25T01:48:24.320Z,100.00
2023-05-25T01:51:32.378Z,100.00
2023-05-25T01:54:21.281Z,100.00
2023-05-25T01:57:12.556Z,100.00
2023-05-25T02:00:02.505Z,100.00
2023-05-25T02:03:01.247Z,100.00
2023-05-25T02:05:48.229Z,100.00
2023-05-25T02:08:34.518Z,100.00
2023-05-25T02:11:21.719Z,100.00
2023-05-25T02:14:09.062Z,100.00
2023-05-25T02:16:55.298Z,100.00
2023-05-25T02:19:41.804Z,100.00
2023-05-25T02:22:28.394Z,100.00
2023-05-25T02:25:14.655Z,100.00
2023-05-25T02:28:01.000Z,100.00
2023-05-25T02:30:47.605Z,100.00
2023-05-25T02:33:34.069Z,100.00
2023-05-25T02:36:21.077Z,100.00
2023-05-25T02:39:07.490Z,100.00
2023-05-25T02:41:54.298Z,100.00
2023-05-25T02:44:40.897Z,100.00
2023-05-25T02:47:27.613Z,100.00
2023-05-25T02:50:13.891Z,100.00
2023-05-25T02:53:04.862Z,100.00
2023-05-25T02:55:51.586Z,100.00
2023-05-25T02:58:42.463Z,100.00
2023-05-25T03:01:35.041Z,100.00
2023-05-25T03:04:21.978Z,100.00
2023-05-25T03:07:08.332Z,100.00
2023-05-25T03:09:54.646Z,100.00
2023-05-25T03:12:42.177Z,100.00
2023-05-25T03:15:28.727Z,100.00
2023-05-25T03:18:16.173Z,100.00
2023-05-25T03:21:03.388Z,100.00
2023-05-25T03:23:50.639Z,100.00
2023-05-25T03:26:37.460Z,100.00
2023-05-25T03:29:27.022Z,100.00
2023-05-25T03:32:13.796Z,100.00
2023-05-25T03:35:00.383Z,100.00
2023-05-25T03:37:47.050Z,100.00
2023-05-25T03:40:33.531Z,100.00
2023-05-25T03:43:19.677Z,100.00
2023-05-25T03:46:07.879Z,100.00
2023-05-25T03:48:54.200Z,100.00
2023-05-25T03:51:41.371Z,100.00
2023-05-25T03:54:27.977Z,100.00
2023-05-25T03:57:14.784Z,100.00
2023-05-25T04:00:01.201Z,100.00
2023-05-25T04:02:47.755Z,100.00
2023-05-25T04:05:34.121Z,100.00
2023-05-25T04:08:20.634Z,100.00
2023-05-25T04:11:07.169Z,100.00
2023-05-25T04:13:53.688Z,100.00
2023-05-25T04:16:42.819Z,100.00
2023-05-25T04:19:31.029Z,100.00
2023-05-25T04:22:17.778Z,100.00
2023-05-25T04:25:08.778Z,100.00
2023-05-25T04:27:56.719Z,100.00
2023-05-25T04:31:03.710Z,100.00
2023-05-25T04:34:23.293Z,100.00
2023-05-25T04:37:19.548Z,100.00
2023-05-25T04:40:14.085Z,100.00
2023-05-25T04:43:01.940Z,100.00
2023-05-25T04:45:48.320Z,100.00
2023-05-25T04:48:35.130Z,100.00
2023-05-25T04:51:22.890Z,100.00
2023-05-25T04:54:09.351Z,100.00
2023-05-25T04:56:55.694Z,100.00
2023-05-25T04:59:42.063Z,100.00
2023-05-25T05:02:28.349Z,100.00
2023-05-25T05:05:15.001Z,99.13
2023-05-25T05:08:03.534Z,87.65
2023-05-25T05:10:50.038Z,81.77
2023-05-25T05:13:37.070Z,75.23
2023-05-25T05:16:24.135Z,69.72
2023-05-25T05:19:10.875Z,64.16
2023-05-25T05:21:57.949Z,62.43
2023-05-25T05:24:46.098Z,59.91
2023-05-25T05:27:40.338Z,60.23
2023-05-25T05:30:44.127Z,56.23
2023-05-25T05:33:31.340Z,54.68
2023-05-25T05:36:19.336Z,52.34
2023-05-25T05:39:06.045Z,50.31
2023-05-25T05:41:53.852Z,51.22
2023-05-25T05:44:40.167Z,55.18
2023-05-25T05:47:27.026Z,55.22
2023-05-25T05:50:13.695Z,57.73
2023-05-25T05:53:01.076Z,58.32
2023-05-25T05:55:49.278Z,61.76
2023-05-25T05:58:38.449Z,63.54
2023-05-25T06:01:25.409Z,65.39
2023-05-25T06:04:12.088Z,67.37
2023-05-25T06:06:59.172Z,68.09
2023-05-25T06:09:45.827Z,68.13
2023-05-25T06:12:33.628Z,69.72
2023-05-25T06:15:20.645Z,69.56
2023-05-25T06:18:09.322Z,71.28
2023-05-25T06:20:55.932Z,70.29
2023-05-25T06:23:42.925Z,70.34
2023-05-25T06:26:29.407Z,69.79
2023-05-25T06:29:17.147Z,69.07
2023-05-25T06:32:04.246Z,68.99
2023-05-25T06:34:51.016Z,67.96
2023-05-25T06:37:38.606Z,68.92
2023-05-25T06:40:26.796Z,68.29
2023-05-25T06:43:13.362Z,67.66
2023-05-25T06:46:22.906Z,69.30
2023-05-25T06:49:09.514Z,68.90
2023-05-25T06:51:56.332Z,68.29
2023-05-25T06:54:42.880Z,66.79
2023-05-25T06:57:29.615Z,66.04
2023-05-25T07:00:17.427Z,65.94
2023-05-25T07:03:03.739Z,66.19
2023-05-25T07:05:50.407Z,65.71
2023-05-25T07:08:36.758Z,65.63
2023-05-25T07:11:23.261Z,66.26
2023-05-25T07:14:09.585Z,65.66
2023-05-25T07:16:56.186Z,64.30
2023-05-25T07:19:43.326Z,64.62
2023-05-25T07:22:29.797Z,62.73
2023-05-25T07:25:16.457Z,61.72
2023-05-25T07:28:03.124Z,62.21
2023-05-25T07:30:50.010Z,62.62
2023-05-25T07:33:36.237Z,61.51
2023-05-25T07:36:24.857Z,62.34
2023-05-25T07:39:11.481Z,61.98
2023-05-25T07:41:57.966Z,61.81
2023-05-25T07:44:44.343Z,61.49
2023-05-25T07:47:30.776Z,61.32
2023-05-25T07:50:17.641Z,61.24
2023-05-25T07:53:04.249Z,60.75
2023-05-25T07:55:50.890Z,59.71
2023-05-25T07:58:37.573Z,60.75
2023-05-25T08:01:26.769Z,60.25
2023-05-25T08:04:13.814Z,59.18
2023-05-25T08:07:00.396Z,58.00
2023-05-25T08:09:47.223Z,57.85
2023-05-25T08:12:47.126Z,57.54
2023-05-25T08:15:35.427Z,56.93
2023-05-25T08:18:22.382Z,57.33
2023-05-25T08:21:08.738Z,58.47
2023-05-25T08:23:56.105Z,57.54
2023-05-25T08:26:53.774Z,55.99
2023-05-25T08:29:40.836Z,57.81
2023-05-25T08:32:27.515Z,57.52
2023-05-25T08:35:14.430Z,57.53
2023-05-25T08:38:00.861Z,57.37
2023-05-25T08:40:53.132Z,55.69
2023-05-25T08:43:41.966Z,56.36
2023-05-25T08:46:31.342Z,56.28
2023-05-25T08:49:18.070Z,58.17
2023-05-25T08:52:05.468Z,56.46
2023-05-25T08:54:55.215Z,56.53
2023-05-25T08:58:16.993Z,55.86
2023-05-25T09:01:08.428Z,55.69
2023-05-25T09:03:56.835Z,56.09
2023-05-25T09:06:54.037Z,56.82
2023-05-25T09:09:48.571Z,57.22
2023-05-25T09:12:36.379Z,57.47
2023-05-25T09:15:22.708Z,58.12
2023-05-25T09:18:10.368Z,56.62
2023-05-25T09:20:58.922Z,56.11
2023-05-25T09:23:46.278Z,56.84
2023-05-25T09:26:33.868Z,56.46
2023-05-25T09:29:20.880Z,56.82
2023-05-25T09:32:07.896Z,57.50
2023-05-25T09:34:56.583Z,56.89
2023-05-25T09:37:44.322Z,57.25
2023-05-25T09:40:33.464Z,56.94
2023-05-25T09:43:32.380Z,55.72
2023-05-25T09:46:26.328Z,54.18
2023-05-25T09:49:12.692Z,54.18
2023-05-25T09:52:00.554Z,53.18
2023-05-25T09:54:51.725Z,52.66
2023-05-25T09:57:38.138Z,52.75
2023-05-25T10:00:25.699Z,52.65
2023-05-25T10:03:15.014Z,51.93
2023-05-25T10:06:03.141Z,53.48
2023-05-25T10:08:50.686Z,54.44
2023-05-25T10:11:40.154Z,53.92
2023-05-25T10:14:29.353Z,54.56
2023-05-25T10:17:23.044Z,54.89
2023-05-25T10:20:10.703Z,53.88
2023-05-25T10:22:59.752Z,54.02
2023-05-25T10:25:53.769Z,53.90
2023-05-25T10:28:44.449Z,53.74
2023-05-25T10:31:33.982Z,54.00
2023-05-25T10:34:22.072Z,54.00
2023-05-25T10:37:08.969Z,53.59
2023-05-25T10:39:57.356Z,52.40
2023-05-25T10:42:45.643Z,52.63
2023-05-25T10:45:32.897Z,53.23
2023-05-25T10:48:19.243Z,53.05
2023-05-25T10:51:08.842Z,52.74
2023-05-25T10:54:02.099Z,53.81
2023-05-25T10:57:18.323Z,52.86
2023-05-25T11:00:07.129Z,52.35
2023-05-25T11:02:55.515Z,51.86
2023-05-25T11:05:50.504Z,52.28
2023-05-25T11:08:51.073Z,52.05
2023-05-25T11:11:43.516Z,51.45
2023-05-25T11:14:31.630Z,51.05
2023-05-25T11:17:22.322Z,51.53
2023-05-25T11:20:21.543Z,49.77
2023-05-25T11:23:24.019Z,50.66
2023-05-25T11:26:21.898Z,48.88
2023-05-25T11:29:14.451Z,49.10
2023-05-25T11:32:01.128Z,49.10
2023-05-25T11:34:48.514Z,47.78
2023-05-25T11:37:34.965Z,47.70
2023-05-25T11:40:24.557Z,48.45
2023-05-25T11:43:12.662Z,48.20
2023-05-25T11:46:00.457Z,47.02
2023-05-25T11:48:52.117Z,46.88
2023-05-25T11:51:38.707Z,48.49
2023-05-25T11:54:27.665Z,48.07
2023-05-25T11:57:16.941Z,47.99
2023-05-25T12:00:07.098Z,47.82
2023-05-25T12:02:53.574Z,46.85
2023-05-25T12:05:40.131Z,47.40
2023-05-25T12:08:34.080Z,48.17
2023-05-25T12:11:38.311Z,48.09
2023-05-25T12:14:25.508Z,46.69
2023-05-25T12:17:12.146Z,47.48
2023-05-25T12:19:58.687Z,47.49
2023-05-25T12:22:46.649Z,46.34
2023-05-25T12:25:49.160Z,47.22
2023-05-25T12:28:36.389Z,46.68
2023-05-25T12:31:27.479Z,47.82
2023-05-25T12:34:18.090Z,47.60
2023-05-25T12:37:04.706Z,46.51
2023-05-25T12:39:51.388Z,46.57
2023-05-25T12:42:37.629Z,46.31
2023-05-25T12:45:24.557Z,47.08
2023-05-25T12:48:11.215Z,47.50
2023-05-25T12:50:58.413Z,46.29
2023-05-25T12:53:52.477Z,46.73
2023-05-25T12:56:57.591Z,46.77
2023-05-25T12:59:46.216Z,46.80
2023-05-25T13:02:32.870Z,46.48
2023-05-25T13:05:27.823Z,46.01
2023-05-25T13:08:14.728Z,44.06
2023-05-25T13:11:03.560Z,44.16
2023-05-25T13:13:50.172Z,44.95
2023-05-25T13:16:36.521Z,44.76
2023-05-25T13:19:24.733Z,44.54
2023-05-25T13:22:11.414Z,44.52
2023-05-25T13:24:58.001Z,44.21
2023-05-25T13:27:46.294Z,45.38
2023-05-25T13:30:32.436Z,45.77
2023-05-25T13:33:19.054Z,44.59
2023-05-25T13:36:08.646Z,44.43
2023-05-25T13:38:55.332Z,44.57
2023-05-25T13:41:41.908Z,44.74
2023-05-25T13:44:28.316Z,44.98
2023-05-25T13:47:14.947Z,45.42
2023-05-25T13:50:01.494Z,44.98
2023-05-25T13:52:49.108Z,43.68
2023-05-25T13:55:37.347Z,44.76
2023-05-25T13:58:25.275Z,44.36
2023-05-25T14:01:11.855Z,45.14
2023-05-25T14:03:59.846Z,44.38
2023-05-25T14:06:46.559Z,44.96
2023-05-25T14:09:33.148Z,44.48
2023-05-25T14:12:19.535Z,45.38
2023-05-25T14:15:07.291Z,45.21
2023-05-25T14:17:55.795Z,44.96
2023-05-25T14:20:43.972Z,45.15
2023-05-25T14:23:31.604Z,44.27
2023-05-25T14:26:18.568Z,44.60
2023-05-25T14:29:04.980Z,45.24
2023-05-25T14:31:51.629Z,44.98
2023-05-25T14:34:37.915Z,45.35
2023-05-25T14:37:24.223Z,45.21
2023-05-25T14:40:11.393Z,44.63
2023-05-25T14:42:58.022Z,45.03
2023-05-25T14:45:44.672Z,45.11
2023-05-25T14:48:33.481Z,45.57
2023-05-25T14:51:20.106Z,45.02
2023-05-25T14:54:07.794Z,45.06
2023-05-25T14:56:54.079Z,45.30
2023-05-25T14:59:40.824Z,45.22
2023-05-25T15:02:27.406Z,44.81
2023-05-25T15:05:14.023Z,45.44
2023-05-25T15:08:00.469Z,45.35
2023-05-25T15:10:46.946Z,46.10
2023-05-25T15:13:33.529Z,45.84
2023-05-25T15:16:20.171Z,45.81
2023-05-25T15:19:09.210Z,46.02
2023-05-25T15:21:57.665Z,45.08
2023-05-25T15:24:44.095Z,45.24
2023-05-25T15:27:32.148Z,45.15
2023-05-25T15:30:19.318Z,45.72
2023-05-25T15:33:05.608Z,46.07
2023-05-25T15:35:52.085Z,46.03
2023-05-25T15:38:38.684Z,46.27
2023-05-25T15:41:25.622Z,45.75
2023-05-25T15:44:12.793Z,45.64
2023-05-25T15:46:59.395Z,45.74
2023-05-25T15:49:45.916Z,45.67
2023-05-25T15:52:32.603Z,45.30
2023-05-25T15:55:19.078Z,45.99
2023-05-25T15:58:05.329Z,46.06
2023-05-25T16:00:51.698Z,45.71
2023-05-25T16:03:38.219Z,46.00
2023-05-25T16:06:24.815Z,46.21
2023-05-25T16:09:11.304Z,46.17
2023-05-25T16:11:58.035Z,45.35
2023-05-25T16:14:44.387Z,45.80
2023-05-25T16:17:30.826Z,46.12
2023-05-25T16:20:17.348Z,46.28
2023-05-25T16:23:04.103Z,46.12
2023-05-25T16:25:50.926Z,45.61
2023-05-25T16:28:37.549Z,45.97
2023-05-25T16:31:23.926Z,45.88
2023-05-25T16:34:10.560Z,45.79
2023-05-25T16:36:57.042Z,45.95
2023-05-25T16:39:43.610Z,45.66
2023-05-25T16:42:29.866Z,46.54
2023-05-25T16:45:16.269Z,46.27
2023-05-25T16:48:03.166Z,46.11
2023-05-25T16:50:49.511Z,46.14
2023-05-25T16:53:35.841Z,46.83
2023-05-25T16:56:24.628Z,45.83
2023-05-25T16:59:11.002Z,45.76
2023-05-25T17:01:57.619Z,46.08
2023-05-25T17:04:44.709Z,45.96
2023-05-25T17:07:31.016Z,46.43
2023-05-25T17:10:17.384Z,46.09
2023-05-25T17:13:03.579Z,47.08
2023-05-25T17:15:50.120Z,46.37
2023-05-25T17:18:36.413Z,46.12
2023-05-25T17:21:23.041Z,46.41
2023-05-25T17:24:10.241Z,45.70
2023-05-25T17:26:56.682Z,45.74
2023-05-25T17:29:43.373Z,45.84
2023-05-25T17:32:29.653Z,46.25
2023-05-25T17:35:16.200Z,46.10
2023-05-25T17:38:02.511Z,46.04
2023-05-25T17:40:50.235Z,46.12
2023-05-25T17:43:36.918Z,46.16
2023-05-25T17:46:23.217Z,47.05
2023-05-25T17:49:09.754Z,47.03
2023-05-25T17:51:56.001Z,47.44
2023-05-25T17:54:42.256Z,46.52
2023-05-25T17:57:28.774Z,46.75
2023-05-25T18:00:15.574Z,46.51
2023-05-25T18:03:02.272Z,47.03
2023-05-25T18:05:48.918Z,47.21
2023-05-25T18:08:35.781Z,47.89
2023-05-25T18:11:23.317Z,47.84
2023-05-25T18:14:09.545Z,47.37
2023-05-25T18:16:55.830Z,48.50
2023-05-25T18:19:42.367Z,48.81
2023-05-25T18:22:28.766Z,48.91
2023-05-25T18:25:15.349Z,48.95
2023-05-25T18:28:01.810Z,49.31
2023-05-25T18:30:48.590Z,49.32
2023-05-25T18:33:34.998Z,49.10
2023-05-25T18:36:21.319Z,49.12
2023-05-25T18:39:07.882Z,49.45
2023-05-25T18:41:54.151Z,50.41
2023-05-25T18:44:40.825Z,50.16
2023-05-25T18:47:27.428Z,50.70
2023-05-25T18:50:13.936Z,50.94
2023-05-25T18:53:02.147Z,51.10
2023-05-25T18:55:48.713Z,51.87
2023-05-25T18:58:35.413Z,51.73
2023-05-25T19:01:23.794Z,52.47
2023-05-25T19:04:10.512Z,52.33
2023-05-25T19:06:56.762Z,52.68
2023-05-25T19:09:43.227Z,53.09
2023-05-25T19:12:29.856Z,53.12
2023-05-25T19:15:16.108Z,53.19
2023-05-25T19:18:03.973Z,54.62
2023-05-25T19:20:50.631Z,55.55
2023-05-25T19:23:36.883Z,54.88
2023-05-25T19:26:23.472Z,58.43
2023-05-25T19:29:09.637Z,59.34
2023-05-25T19:31:55.976Z,63.95
2023-05-25T19:34:42.501Z,66.69
2023-05-25T19:37:28.817Z,68.86
2023-05-25T19:40:15.750Z,71.03
2023-05-25T19:43:02.165Z,71.81
2023-05-25T19:45:48.854Z,74.06
2023-05-25T19:48:35.272Z,73.58
2023-05-25T19:51:21.811Z,76.26
2023-05-25T19:54:08.305Z,77.86
2023-05-25T19:56:55.026Z,78.82
2023-05-25T19:59:41.674Z,80.59
2023-05-25T20:02:28.223Z,82.61
2023-05-25T20:05:14.716Z,83.65
2023-05-25T20:08:01.399Z,84.66
2023-05-25T20:10:47.965Z,86.38
2023-05-25T20:13:34.223Z,87.89
2023-05-25T20:16:21.117Z,89.49
2023-05-25T20:19:07.883Z,90.72
2023-05-25T20:21:54.805Z,91.42
2023-05-25T20:24:41.120Z,92.50
2023-05-25T20:27:27.948Z,94.58
2023-05-25T20:30:15.683Z,96.68
2023-05-25T20:33:02.248Z,96.70
2023-05-25T20:35:49.179Z,98.99
2023-05-25T20:38:35.759Z,100.00
2023-05-25T20:41:22.767Z,100.00
2023-05-25T20:44:10.032Z,100.00
2023-05-25T20:46:56.117Z,100.00
2023-05-25T20:49:42.582Z,100.00
2023-05-25T20:52:29.084Z,100.00
2023-05-25T20:55:15.955Z,100.00
2023-05-25T20:58:02.518Z,100.00
2023-05-25T21:00:49.812Z,100.00
2023-05-25T21:03:36.263Z,100.00
2023-05-25T21:06:22.749Z,100.00
2023-05-25T21:09:09.421Z,100.00
2023-05-25T21:11:55.825Z,100.00
2023-05-25T21:14:42.175Z,100.00
2023-05-25T21:17:28.459Z,100.00
2023-05-25T21:20:15.517Z,100.00
2023-05-25T21:23:02.574Z,100.00
2023-05-25T21:25:49.343Z,100.00
2023-05-25T21:28:36.047Z,100.00
2023-05-25T21:31:26.390Z,100.00
2023-05-25T21:34:12.999Z,100.00
2023-05-25T21:36:59.412Z,100.00
2023-05-25T21:39:45.889Z,100.00
2023-05-25T21:42:32.314Z,100.00
2023-05-25T21:45:18.625Z,100.00
2023-05-25T21:48:05.296Z,100.00
2023-05-25T21:50:53.008Z,100.00
2023-05-25T21:53:39.327Z,100.00
2023-05-25T21:56:26.612Z,100.00
2023-05-25T21:59:13.272Z,100.00
2023-05-25T22:02:00.377Z,100.00
2023-05-25T22:04:47.092Z,100.00
2023-05-25T22:07:33.628Z,100.00
2023-05-25T22:10:19.870Z,100.00
2023-05-25T22:13:06.083Z,100.00
2023-05-25T22:15:52.651Z,100.00
2023-05-25T22:18:38.820Z,100.00
2023-05-25T22:21:25.719Z,100.00
2023-05-25T22:24:12.405Z,100.00
2023-05-25T22:26:58.897Z,100.00
2023-05-25T22:29:45.466Z,100.00
2023-05-25T22:32:32.384Z,100.00
2023-05-25T22:35:19.110Z,100.00
2023-05-25T22:38:05.701Z,100.00
2023-05-25T22:40:52.053Z,100.00
2023-05-25T22:43:38.469Z,100.00
2023-05-25T22:46:25.070Z,100.00
2023-05-25T22:49:11.847Z,100.00
2023-05-25T22:51:58.253Z,100.00
2023-05-25T22:54:44.886Z,100.00
2023-05-25T22:57:31.388Z,100.00
2023-05-25T23:00:17.929Z,100.00
2023-05-25T23:03:04.591Z,100.00
2023-05-25T23:05:51.061Z,100.00
2023-05-25T23:08:37.626Z,100.00
2023-05-25T23:11:25.450Z,100.00
2023-05-25T23:14:12.107Z,100.00
2023-05-25T23:16:58.601Z,100.00
2023-05-25T23:19:45.098Z,100.00
2023-05-25T23:22:31.467Z,100.00
2023-05-25T23:25:18.041Z,100.00
2023-05-25T23:28:04.553Z,100.00
2023-05-25T23:30:50.901Z,100.00
2023-05-25T23:33:37.399Z,100.00
2023-05-25T23:36:26.101Z,100.00
2023-05-25T23:39:12.976Z,100.00
2023-05-25T23:41:59.326Z,100.00
2023-05-25T23:44:46.165Z,100.00
2023-05-25T23:47:32.769Z,100.00
2023-05-25T23:50:18.992Z,100.00
2023-05-25T23:53:05.436Z,100.00
2023-05-25T23:55:52.021Z,100.00
2023-05-25T23:58:38.323Z,100.00
